Clinton, Maryland
Current Conditions -  °F | °C
As of 9:58 AM on Saturday 25 Oct 2014 (Local Time) from KADW Reporting Station
Clear Clear  
Wind Chill: 58°   Ceiling: Unl
Heat Index: 58°   Visibility: 10mi
Dew Point: 42°   Wind: 7mph
Humidity: 55%   Direction: 280°W
Pressure: 29.96"   Gusts: NA
Location:  38.76°N, 76.91°W
Report Text: KADW 251358Z AUTO 28006KT 10SM CLR 15/06 A2996 RMK AO2 SLP152 T01470058 $
Loading
Personal Weather Stations






























Interactive Weather Map
Tropical Storm Tracking
New forecast layout! Learn more

10-Day Weather Forecast

Advertisements
Track Severe Weather on mobile